sensor_id;sensor_type;location;lat;lon;timestamp;P1;durP1;ratioP1;P2;durP2;ratioP2
51048;SDS011;37084;55.228;36.450;2023-05-03T00:00:43;2.75;;;1.67;;
51048;SDS011;37084;55.228;36.450;2023-05-03T00:03:44;2.00;;;1.17;;
51048;SDS011;37084;55.228;36.450;2023-05-03T00:06:46;3.17;;;2.35;;
51048;SDS011;37084;55.228;36.450;2023-05-03T00:09:47;3.72;;;2.00;;
51048;SDS011;37084;55.228;36.450;2023-05-03T00:12:49;5.40;;;1.50;;
51048;SDS011;37084;55.228;36.450;2023-05-03T00:15:50;2.75;;;1.52;;
51048;SDS011;37084;55.228;36.450;2023-05-03T00:18:52;2.60;;;1.42;;
51048;SDS011;37084;55.228;36.450;2023-05-03T00:21:53;4.22;;;1.58;;
51048;SDS011;37084;55.228;36.450;2023-05-03T00:24:54;2.80;;;1.73;;
51048;SDS011;37084;55.228;36.450;2023-05-03T00:27:56;2.30;;;1.45;;
51048;SDS011;37084;55.228;36.450;2023-05-03T00:31:04;2.60;;;1.30;;
51048;SDS011;37084;55.228;36.450;2023-05-03T00:34:07;1.92;;;1.40;;
51048;SDS011;37084;55.228;36.450;2023-05-03T00:37:08;4.25;;;1.63;;
51048;SDS011;37084;55.228;36.450;2023-05-03T00:40:10;2.90;;;2.20;;
51048;SDS011;37084;55.228;36.450;2023-05-03T00:43:13;2.97;;;2.50;;
51048;SDS011;37084;55.228;36.450;2023-05-03T00:46:14;3.13;;;1.33;;
51048;SDS011;37084;55.228;36.450;2023-05-03T00:49:15;2.40;;;1.38;;
51048;SDS011;37084;55.228;36.450;2023-05-03T00:52:16;4.18;;;1.50;;
51048;SDS011;37084;55.228;36.450;2023-05-03T00:55:18;5.00;;;1.67;;
51048;SDS011;37084;55.228;36.450;2023-05-03T00:58:20;1.40;;;1.23;;
51048;SDS011;37084;55.228;36.450;2023-05-03T01:01:22;4.22;;;1.40;;
51048;SDS011;37084;55.228;36.450;2023-05-03T01:04:23;2.33;;;2.08;;
51048;SDS011;37084;55.228;36.450;2023-05-03T01:07:37;2.85;;;1.35;;
51048;SDS011;37084;55.228;36.450;2023-05-03T01:10:54;1.98;;;1.45;;
51048;SDS011;37084;55.228;36.450;2023-05-03T01:17:04;4.35;;;1.90;;
51048;SDS011;37084;55.228;36.450;2023-05-03T01:20:10;3.17;;;1.65;;
51048;SDS011;37084;55.228;36.450;2023-05-03T01:23:14;4.03;;;1.58;;
51048;SDS011;37084;55.228;36.450;2023-05-03T01:26:21;4.13;;;1.40;;
51048;SDS011;37084;55.228;36.450;2023-05-03T01:29:24;2.38;;;1.15;;
51048;SDS011;37084;55.228;36.450;2023-05-03T01:32:29;4.65;;;1.52;;
51048;SDS011;37084;55.228;36.450;2023-05-03T01:35:40;3.05;;;1.73;;
51048;SDS011;37084;55.228;36.450;2023-05-03T01:38:54;5.70;;;1.35;;
51048;SDS011;37084;55.228;36.450;2023-05-03T01:41:55;3.47;;;1.60;;
51048;SDS011;37084;55.228;36.450;2023-05-03T01:44:57;3.05;;;1.67;;
51048;SDS011;37084;55.228;36.450;2023-05-03T01:47:58;3.78;;;1.58;;
51048;SDS011;37084;55.228;36.450;2023-05-03T01:51:00;2.55;;;1.35;;
51048;SDS011;37084;55.228;36.450;2023-05-03T01:54:01;4.03;;;1.67;;
51048;SDS011;37084;55.228;36.450;2023-05-03T01:57:03;3.05;;;1.63;;
51048;SDS011;37084;55.228;36.450;2023-05-03T02:00:05;2.00;;;1.42;;
51048;SDS011;37084;55.228;36.450;2023-05-03T02:03:13;1.83;;;1.23;;
51048;SDS011;37084;55.228;36.450;2023-05-03T02:06:15;2.38;;;1.88;;
51048;SDS011;37084;55.228;36.450;2023-05-03T02:09:16;2.67;;;1.30;;
51048;SDS011;37084;55.228;36.450;2023-05-03T02:12:18;4.18;;;1.45;;
51048;SDS011;37084;55.228;36.450;2023-05-03T02:15:19;2.20;;;1.23;;
51048;SDS011;37084;55.228;36.450;2023-05-03T02:18:20;4.85;;;1.55;;
51048;SDS011;37084;55.228;36.450;2023-05-03T02:21:22;5.72;;;1.40;;
51048;SDS011;37084;55.228;36.450;2023-05-03T02:24:24;4.22;;;1.48;;
51048;SDS011;37084;55.228;36.450;2023-05-03T02:27:26;2.50;;;1.35;;
51048;SDS011;37084;55.228;36.450;2023-05-03T02:30:27;2.75;;;1.65;;
51048;SDS011;37084;55.228;36.450;2023-05-03T02:33:28;2.97;;;1.45;;
51048;SDS011;37084;55.228;36.450;2023-05-03T02:36:30;1.63;;;1.15;;
51048;SDS011;37084;55.228;36.450;2023-05-03T02:39:34;2.33;;;1.60;;
51048;SDS011;37084;55.228;36.450;2023-05-03T02:42:37;1.52;;;1.33;;
51048;SDS011;37084;55.228;36.450;2023-05-03T02:45:41;4.43;;;1.52;;
51048;SDS011;37084;55.228;36.450;2023-05-03T02:48:43;2.60;;;1.42;;
51048;SDS011;37084;55.228;36.450;2023-05-03T02:51:45;2.42;;;1.58;;
51048;SDS011;37084;55.228;36.450;2023-05-03T02:54:46;4.47;;;1.42;;
51048;SDS011;37084;55.228;36.450;2023-05-03T02:57:49;4.20;;;1.40;;
51048;SDS011;37084;55.228;36.450;2023-05-03T03:00:53;2.20;;;1.13;;
51048;SDS011;37084;55.228;36.450;2023-05-03T03:03:55;2.42;;;1.65;;
51048;SDS011;37084;55.228;36.450;2023-05-03T03:06:56;3.53;;;1.70;;
51048;SDS011;37084;55.228;36.450;2023-05-03T03:09:58;3.30;;;1.33;;
51048;SDS011;37084;55.228;36.450;2023-05-03T03:13:00;5.60;;;1.40;;
51048;SDS011;37084;55.228;36.450;2023-05-03T03:16:08;4.82;;;1.85;;
51048;SDS011;37084;55.228;36.450;2023-05-03T03:19:09;6.15;;;1.38;;
51048;SDS011;37084;55.228;36.450;2023-05-03T03:22:11;2.67;;;2.15;;
51048;SDS011;37084;55.228;36.450;2023-05-03T03:25:12;5.82;;;1.50;;
51048;SDS011;37084;55.228;36.450;2023-05-03T03:28:14;4.50;;;1.45;;
51048;SDS011;37084;55.228;36.450;2023-05-03T03:31:15;2.53;;;1.35;;
51048;SDS011;37084;55.228;36.450;2023-05-03T03:34:18;4.00;;;1.67;;
51048;SDS011;37084;55.228;36.450;2023-05-03T03:37:19;2.38;;;1.30;;
51048;SDS011;37084;55.228;36.450;2023-05-03T03:40:23;2.75;;;1.80;;
51048;SDS011;37084;55.228;36.450;2023-05-03T03:43:26;3.22;;;1.33;;
51048;SDS011;37084;55.228;36.450;2023-05-03T03:46:28;2.53;;;1.42;;
51048;SDS011;37084;55.228;36.450;2023-05-03T03:49:32;5.07;;;1.52;;
51048;SDS011;37084;55.228;36.450;2023-05-03T03:52:33;3.20;;;1.85;;
51048;SDS011;37084;55.228;36.450;2023-05-03T03:55:36;3.30;;;1.90;;
51048;SDS011;37084;55.228;36.450;2023-05-03T03:58:38;3.08;;;1.48;;
51048;SDS011;37084;55.228;36.450;2023-05-03T04:01:42;2.13;;;1.33;;
51048;SDS011;37084;55.228;36.450;2023-05-03T04:04:45;5.22;;;2.38;;
51048;SDS011;37084;55.228;36.450;2023-05-03T04:07:46;3.92;;;1.65;;
51048;SDS011;37084;55.228;36.450;2023-05-03T04:10:50;4.75;;;1.95;;
51048;SDS011;37084;55.228;36.450;2023-05-03T04:13:52;2.53;;;1.52;;
51048;SDS011;37084;55.228;36.450;2023-05-03T04:16:53;4.65;;;1.50;;
51048;SDS011;37084;55.228;36.450;2023-05-03T04:19:55;4.85;;;1.85;;
51048;SDS011;37084;55.228;36.450;2023-05-03T04:22:57;4.00;;;1.38;;
51048;SDS011;37084;55.228;36.450;2023-05-03T04:26:02;2.53;;;1.25;;
51048;SDS011;37084;55.228;36.450;2023-05-03T04:29:04;5.25;;;2.10;;
51048;SDS011;37084;55.228;36.450;2023-05-03T04:32:06;1.83;;;1.20;;
51048;SDS011;37084;55.228;36.450;2023-05-03T04:35:10;1.90;;;1.42;;
51048;SDS011;37084;55.228;36.450;2023-05-03T04:38:19;2.50;;;1.30;;
51048;SDS011;37084;55.228;36.450;2023-05-03T04:41:23;4.65;;;1.70;;
51048;SDS011;37084;55.228;36.450;2023-05-03T04:44:25;3.22;;;1.60;;
51048;SDS011;37084;55.228;36.450;2023-05-03T04:47:27;3.70;;;1.83;;
51048;SDS011;37084;55.228;36.450;2023-05-03T04:50:29;2.80;;;1.23;;
51048;SDS011;37084;55.228;36.450;2023-05-03T04:53:32;3.83;;;1.60;;
51048;SDS011;37084;55.228;36.450;2023-05-03T04:56:42;3.42;;;1.63;;
51048;SDS011;37084;55.228;36.450;2023-05-03T04:59:48;2.63;;;1.58;;
51048;SDS011;37084;55.228;36.450;2023-05-03T05:02:51;5.35;;;1.60;;
51048;SDS011;37084;55.228;36.450;2023-05-03T05:05:53;3.60;;;1.60;;
51048;SDS011;37084;55.228;36.450;2023-05-03T05:08:54;4.30;;;1.85;;
51048;SDS011;37084;55.228;36.450;2023-05-03T05:11:56;3.40;;;1.77;;
51048;SDS011;37084;55.228;36.450;2023-05-03T05:14:59;2.65;;;2.03;;
51048;SDS011;37084;55.228;36.450;2023-05-03T05:18:00;2.22;;;1.55;;
51048;SDS011;37084;55.228;36.450;2023-05-03T05:21:01;4.20;;;2.20;;
51048;SDS011;37084;55.228;36.450;2023-05-03T05:24:04;3.42;;;1.50;;
51048;SDS011;37084;55.228;36.450;2023-05-03T05:27:06;2.75;;;1.73;;
51048;SDS011;37084;55.228;36.450;2023-05-03T05:30:07;4.50;;;1.75;;
51048;SDS011;37084;55.228;36.450;2023-05-03T05:33:10;6.10;;;1.83;;
51048;SDS011;37084;55.228;36.450;2023-05-03T05:36:11;4.03;;;1.50;;
51048;SDS011;37084;55.228;36.450;2023-05-03T05:39:14;3.47;;;1.50;;
51048;SDS011;37084;55.228;36.450;2023-05-03T05:42:15;5.68;;;1.30;;
51048;SDS011;37084;55.228;36.450;2023-05-03T05:45:17;3.88;;;1.75;;
51048;SDS011;37084;55.228;36.450;2023-05-03T05:48:18;3.55;;;1.83;;
51048;SDS011;37084;55.228;36.450;2023-05-03T05:51:20;3.42;;;1.73;;
51048;SDS011;37084;55.228;36.450;2023-05-03T05:54:22;4.68;;;1.88;;
51048;SDS011;37084;55.228;36.450;2023-05-03T05:57:23;5.55;;;1.85;;
51048;SDS011;37084;55.228;36.450;2023-05-03T06:00:24;4.18;;;1.52;;
51048;SDS011;37084;55.228;36.450;2023-05-03T06:03:26;2.92;;;1.83;;
51048;SDS011;37084;55.228;36.450;2023-05-03T06:06:27;2.53;;;1.40;;
51048;SDS011;37084;55.228;36.450;2023-05-03T06:09:28;3.88;;;1.77;;
51048;SDS011;37084;55.228;36.450;2023-05-03T06:12:35;4.97;;;2.08;;
51048;SDS011;37084;55.228;36.450;2023-05-03T06:15:37;3.30;;;2.08;;
51048;SDS011;37084;55.228;36.450;2023-05-03T06:18:38;3.05;;;1.77;;
51048;SDS011;37084;55.228;36.450;2023-05-03T06:21:41;4.90;;;2.15;;
51048;SDS011;37084;55.228;36.450;2023-05-03T06:24:42;3.80;;;2.17;;
51048;SDS011;37084;55.228;36.450;2023-05-03T06:27:44;4.20;;;1.83;;
51048;SDS011;37084;55.228;36.450;2023-05-03T06:30:49;4.82;;;1.95;;
51048;SDS011;37084;55.228;36.450;2023-05-03T06:33:51;4.75;;;2.22;;
51048;SDS011;37084;55.228;36.450;2023-05-03T06:36:52;3.22;;;1.73;;
51048;SDS011;37084;55.228;36.450;2023-05-03T06:39:53;3.30;;;1.90;;
51048;SDS011;37084;55.228;36.450;2023-05-03T06:42:55;3.63;;;1.90;;
51048;SDS011;37084;55.228;36.450;2023-05-03T06:46:07;4.38;;;2.00;;
51048;SDS011;37084;55.228;36.450;2023-05-03T06:49:09;3.58;;;1.98;;
51048;SDS011;37084;55.228;36.450;2023-05-03T06:52:10;6.85;;;1.85;;
51048;SDS011;37084;55.228;36.450;2023-05-03T06:55:11;5.53;;;1.98;;
51048;SDS011;37084;55.228;36.450;2023-05-03T06:58:12;3.35;;;2.03;;
51048;SDS011;37084;55.228;36.450;2023-05-03T07:01:14;3.13;;;1.88;;
51048;SDS011;37084;55.228;36.450;2023-05-03T07:04:15;3.28;;;1.83;;
51048;SDS011;37084;55.228;36.450;2023-05-03T07:07:16;4.53;;;2.00;;
51048;SDS011;37084;55.228;36.450;2023-05-03T07:10:17;4.60;;;2.05;;
51048;SDS011;37084;55.228;36.450;2023-05-03T07:13:19;5.78;;;2.40;;
51048;SDS011;37084;55.228;36.450;2023-05-03T07:16:20;3.35;;;2.15;;
51048;SDS011;37084;55.228;36.450;2023-05-03T07:19:21;2.83;;;1.60;;
51048;SDS011;37084;55.228;36.450;2023-05-03T07:22:23;4.10;;;2.00;;
51048;SDS011;37084;55.228;36.450;2023-05-03T07:25:25;4.30;;;1.73;;
51048;SDS011;37084;55.228;36.450;2023-05-03T07:28:26;3.78;;;2.50;;
51048;SDS011;37084;55.228;36.450;2023-05-03T07:31:28;2.92;;;1.77;;
51048;SDS011;37084;55.228;36.450;2023-05-03T07:34:29;3.10;;;2.00;;
51048;SDS011;37084;55.228;36.450;2023-05-03T07:37:32;3.53;;;2.00;;
51048;SDS011;37084;55.228;36.450;2023-05-03T07:40:33;3.25;;;2.35;;
51048;SDS011;37084;55.228;36.450;2023-05-03T07:43:34;4.30;;;1.98;;
51048;SDS011;37084;55.228;36.450;2023-05-03T07:46:36;3.53;;;1.98;;
51048;SDS011;37084;55.228;36.450;2023-05-03T07:49:37;4.95;;;1.92;;
51048;SDS011;37084;55.228;36.450;2023-05-03T07:52:39;3.92;;;2.33;;
51048;SDS011;37084;55.228;36.450;2023-05-03T07:55:42;7.38;;;2.22;;
51048;SDS011;37084;55.228;36.450;2023-05-03T07:58:44;4.10;;;2.80;;
51048;SDS011;37084;55.228;36.450;2023-05-03T08:01:45;4.20;;;2.65;;
51048;SDS011;37084;55.228;36.450;2023-05-03T08:04:46;5.25;;;2.55;;
51048;SDS011;37084;55.228;36.450;2023-05-03T08:07:48;5.63;;;2.92;;
51048;SDS011;37084;55.228;36.450;2023-05-03T08:10:53;5.57;;;2.65;;
51048;SDS011;37084;55.228;36.450;2023-05-03T08:13:54;5.80;;;2.25;;
51048;SDS011;37084;55.228;36.450;2023-05-03T08:16:56;6.15;;;2.35;;
51048;SDS011;37084;55.228;36.450;2023-05-03T08:19:57;6.38;;;2.78;;
51048;SDS011;37084;55.228;36.450;2023-05-03T08:22:58;3.63;;;2.03;;
51048;SDS011;37084;55.228;36.450;2023-05-03T08:26:01;5.90;;;2.60;;
51048;SDS011;37084;55.228;36.450;2023-05-03T08:29:03;4.30;;;2.55;;
51048;SDS011;37084;55.228;36.450;2023-05-03T08:32:04;5.70;;;2.90;;
51048;SDS011;37084;55.228;36.450;2023-05-03T08:35:06;5.43;;;2.42;;
51048;SDS011;37084;55.228;36.450;2023-05-03T08:38:08;3.05;;;2.20;;
51048;SDS011;37084;55.228;36.450;2023-05-03T08:41:15;5.82;;;2.97;;
51048;SDS011;37084;55.228;36.450;2023-05-03T08:44:19;6.70;;;2.58;;
51048;SDS011;37084;55.228;36.450;2023-05-03T08:47:22;3.75;;;2.22;;
51048;SDS011;37084;55.228;36.450;2023-05-03T08:50:24;3.80;;;3.10;;
51048;SDS011;37084;55.228;36.450;2023-05-03T08:53:25;5.40;;;2.90;;
51048;SDS011;37084;55.228;36.450;2023-05-03T08:56:37;4.57;;;2.65;;
51048;SDS011;37084;55.228;36.450;2023-05-03T08:59:50;5.25;;;2.75;;
51048;SDS011;37084;55.228;36.450;2023-05-03T09:03:00;5.60;;;2.47;;
51048;SDS011;37084;55.228;36.450;2023-05-03T09:06:01;5.68;;;3.08;;
51048;SDS011;37084;55.228;36.450;2023-05-03T09:09:03;6.03;;;3.05;;
51048;SDS011;37084;55.228;36.450;2023-05-03T09:12:08;5.97;;;3.05;;
51048;SDS011;37084;55.228;36.450;2023-05-03T09:15:13;5.47;;;3.92;;
51048;SDS011;37084;55.228;36.450;2023-05-03T09:18:21;4.70;;;3.45;;
51048;SDS011;37084;55.228;36.450;2023-05-03T09:21:23;5.65;;;2.92;;
51048;SDS011;37084;55.228;36.450;2023-05-03T09:24:24;7.50;;;3.22;;
51048;SDS011;37084;55.228;36.450;2023-05-03T09:27:26;5.20;;;3.13;;
51048;SDS011;37084;55.228;36.450;2023-05-03T09:30:27;10.85;;;3.42;;
51048;SDS011;37084;55.228;36.450;2023-05-03T09:33:28;5.50;;;3.08;;
51048;SDS011;37084;55.228;36.450;2023-05-03T09:36:43;4.72;;;3.17;;
51048;SDS011;37084;55.228;36.450;2023-05-03T09:39:46;4.55;;;3.17;;
51048;SDS011;37084;55.228;36.450;2023-05-03T09:43:03;5.95;;;3.25;;
51048;SDS011;37084;55.228;36.450;2023-05-03T09:46:10;7.28;;;3.65;;
51048;SDS011;37084;55.228;36.450;2023-05-03T09:49:12;5.78;;;3.55;;
51048;SDS011;37084;55.228;36.450;2023-05-03T09:52:13;5.95;;;3.25;;
51048;SDS011;37084;55.228;36.450;2023-05-03T09:55:16;6.78;;;3.70;;
51048;SDS011;37084;55.228;36.450;2023-05-03T09:58:18;5.55;;;3.38;;
51048;SDS011;37084;55.228;36.450;2023-05-03T10:01:20;8.18;;;4.03;;
51048;SDS011;37084;55.228;36.450;2023-05-03T10:04:24;5.68;;;3.40;;
51048;SDS011;37084;55.228;36.450;2023-05-03T10:07:27;6.28;;;3.58;;
51048;SDS011;37084;55.228;36.450;2023-05-03T10:10:28;5.25;;;3.08;;
51048;SDS011;37084;55.228;36.450;2023-05-03T10:13:32;4.47;;;3.13;;
51048;SDS011;37084;55.228;36.450;2023-05-03T10:16:35;5.18;;;2.60;;
51048;SDS011;37084;55.228;36.450;2023-05-03T10:32:53;4.18;;;2.70;;
51048;SDS011;37084;55.228;36.450;2023-05-03T10:35:55;3.67;;;2.45;;
51048;SDS011;37084;55.228;36.450;2023-05-03T10:38:57;4.15;;;2.30;;
51048;SDS011;37084;55.228;36.450;2023-05-03T10:42:04;4.93;;;2.55;;
51048;SDS011;37084;55.228;36.450;2023-05-03T10:45:08;4.32;;;2.40;;
51048;SDS011;37084;55.228;36.450;2023-05-03T10:48:20;6.50;;;2.25;;
51048;SDS011;37084;55.228;36.450;2023-05-03T10:51:29;4.65;;;2.55;;
51048;SDS011;37084;55.228;36.450;2023-05-03T10:54:36;3.83;;;2.28;;
51048;SDS011;37084;55.228;36.450;2023-05-03T10:57:38;3.10;;;1.95;;
51048;SDS011;37084;55.228;36.450;2023-05-03T11:00:43;4.60;;;3.30;;
51048;SDS011;37084;55.228;36.450;2023-05-03T11:03:52;5.75;;;2.50;;
51048;SDS011;37084;55.228;36.450;2023-05-03T11:07:08;3.90;;;2.50;;
51048;SDS011;37084;55.228;36.450;2023-05-03T11:10:16;3.53;;;2.40;;
51048;SDS011;37084;55.228;36.450;2023-05-03T11:13:18;3.35;;;2.33;;
51048;SDS011;37084;55.228;36.450;2023-05-03T11:16:19;3.67;;;1.92;;
51048;SDS011;37084;55.228;36.450;2023-05-03T11:19:20;4.57;;;2.95;;
51048;SDS011;37084;55.228;36.450;2023-05-03T11:22:22;4.30;;;2.60;;
51048;SDS011;37084;55.228;36.450;2023-05-03T11:25:24;3.63;;;2.63;;
51048;SDS011;37084;55.228;36.450;2023-05-03T11:28:26;4.15;;;2.30;;
51048;SDS011;37084;55.228;36.450;2023-05-03T11:31:27;3.88;;;2.42;;
51048;SDS011;37084;55.228;36.450;2023-05-03T11:34:29;4.15;;;2.22;;
51048;SDS011;37084;55.228;36.450;2023-05-03T11:37:31;4.03;;;2.35;;
51048;SDS011;37084;55.228;36.450;2023-05-03T11:40:32;5.97;;;2.38;;
51048;SDS011;37084;55.228;36.450;2023-05-03T11:43:39;5.63;;;2.40;;
51048;SDS011;37084;55.228;36.450;2023-05-03T11:46:41;4.00;;;2.17;;
51048;SDS011;37084;55.228;36.450;2023-05-03T11:49:54;4.03;;;2.53;;
51048;SDS011;37084;55.228;36.450;2023-05-03T11:52:56;4.80;;;2.35;;
51048;SDS011;37084;55.228;36.450;2023-05-03T11:55:58;2.90;;;2.60;;
51048;SDS011;37084;55.228;36.450;2023-05-03T11:59:00;3.05;;;2.20;;
51048;SDS011;37084;55.228;36.450;2023-05-03T12:02:01;3.00;;;2.40;;
51048;SDS011;37084;55.228;36.450;2023-05-03T12:05:03;3.13;;;2.42;;
51048;SDS011;37084;55.228;36.450;2023-05-03T12:08:07;3.65;;;2.38;;
51048;SDS011;37084;55.228;36.450;2023-05-03T12:11:11;3.78;;;2.17;;
51048;SDS011;37084;55.228;36.450;2023-05-03T12:14:12;5.60;;;2.45;;
51048;SDS011;37084;55.228;36.450;2023-05-03T12:17:14;3.55;;;1.83;;
51048;SDS011;37084;55.228;36.450;2023-05-03T12:20:34;3.17;;;2.03;;
51048;SDS011;37084;55.228;36.450;2023-05-03T12:23:36;4.22;;;2.30;;
51048;SDS011;37084;55.228;36.450;2023-05-03T12:26:37;3.65;;;2.30;;
51048;SDS011;37084;55.228;36.450;2023-05-03T12:29:38;4.05;;;2.35;;
51048;SDS011;37084;55.228;36.450;2023-05-03T12:32:40;3.38;;;2.22;;
51048;SDS011;37084;55.228;36.450;2023-05-03T12:35:41;3.75;;;2.30;;
51048;SDS011;37084;55.228;36.450;2023-05-03T12:38:42;3.35;;;2.13;;
51048;SDS011;37084;55.228;36.450;2023-05-03T12:41:43;3.50;;;2.53;;
51048;SDS011;37084;55.228;36.450;2023-05-03T12:44:45;3.65;;;2.28;;
51048;SDS011;37084;55.228;36.450;2023-05-03T12:47:46;4.07;;;2.22;;
51048;SDS011;37084;55.228;36.450;2023-05-03T12:50:48;3.78;;;3.00;;
51048;SDS011;37084;55.228;36.450;2023-05-03T12:53:49;5.88;;;2.60;;
51048;SDS011;37084;55.228;36.450;2023-05-03T12:56:50;3.63;;;2.50;;
51048;SDS011;37084;55.228;36.450;2023-05-03T12:59:52;5.57;;;2.17;;
51048;SDS011;37084;55.228;36.450;2023-05-03T13:02:53;5.25;;;2.60;;
51048;SDS011;37084;55.228;36.450;2023-05-03T13:05:55;5.15;;;2.30;;
51048;SDS011;37084;55.228;36.450;2023-05-03T13:08:56;6.07;;;2.63;;
51048;SDS011;37084;55.228;36.450;2023-05-03T13:11:58;5.43;;;2.80;;
51048;SDS011;37084;55.228;36.450;2023-05-03T13:15:00;6.40;;;2.97;;
51048;SDS011;37084;55.228;36.450;2023-05-03T13:18:06;5.45;;;2.55;;
51048;SDS011;37084;55.228;36.450;2023-05-03T13:21:08;6.95;;;2.92;;
51048;SDS011;37084;55.228;36.450;2023-05-03T13:24:10;4.53;;;2.67;;
51048;SDS011;37084;55.228;36.450;2023-05-03T13:27:11;3.67;;;2.58;;
51048;SDS011;37084;55.228;36.450;2023-05-03T13:30:14;3.35;;;2.45;;
51048;SDS011;37084;55.228;36.450;2023-05-03T13:33:16;4.10;;;2.50;;
51048;SDS011;37084;55.228;36.450;2023-05-03T13:36:17;4.72;;;2.72;;
51048;SDS011;37084;55.228;36.450;2023-05-03T13:39:19;4.57;;;2.50;;
51048;SDS011;37084;55.228;36.450;2023-05-03T13:42:20;3.30;;;2.50;;
51048;SDS011;37084;55.228;36.450;2023-05-03T13:45:22;5.68;;;2.80;;
51048;SDS011;37084;55.228;36.450;2023-05-03T13:48:23;4.47;;;2.42;;
51048;SDS011;37084;55.228;36.450;2023-05-03T13:51:24;4.30;;;2.28;;
51048;SDS011;37084;55.228;36.450;2023-05-03T13:54:28;4.38;;;2.67;;
51048;SDS011;37084;55.228;36.450;2023-05-03T13:57:29;4.07;;;2.33;;
51048;SDS011;37084;55.228;36.450;2023-05-03T14:00:30;4.25;;;2.65;;
51048;SDS011;37084;55.228;36.450;2023-05-03T14:03:32;3.83;;;2.30;;
51048;SDS011;37084;55.228;36.450;2023-05-03T14:06:33;2.70;;;1.98;;
51048;SDS011;37084;55.228;36.450;2023-05-03T14:09:34;3.47;;;2.50;;
51048;SDS011;37084;55.228;36.450;2023-05-03T14:12:38;3.53;;;2.55;;
51048;SDS011;37084;55.228;36.450;2023-05-03T14:15:41;5.07;;;2.50;;
51048;SDS011;37084;55.228;36.450;2023-05-03T14:18:43;4.25;;;2.70;;
51048;SDS011;37084;55.228;36.450;2023-05-03T14:21:45;3.40;;;2.28;;
51048;SDS011;37084;55.228;36.450;2023-05-03T14:24:49;5.20;;;2.67;;
51048;SDS011;37084;55.228;36.450;2023-05-03T14:27:50;3.72;;;2.45;;
51048;SDS011;37084;55.228;36.450;2023-05-03T14:30:52;3.92;;;2.88;;
51048;SDS011;37084;55.228;36.450;2023-05-03T14:33:53;3.60;;;2.53;;
51048;SDS011;37084;55.228;36.450;2023-05-03T14:36:54;4.55;;;3.22;;
51048;SDS011;37084;55.228;36.450;2023-05-03T14:39:56;5.43;;;2.97;;
51048;SDS011;37084;55.228;36.450;2023-05-03T14:42:57;3.10;;;2.50;;
51048;SDS011;37084;55.228;36.450;2023-05-03T14:45:58;4.70;;;3.08;;
51048;SDS011;37084;55.228;36.450;2023-05-03T14:49:01;5.80;;;2.85;;
51048;SDS011;37084;55.228;36.450;2023-05-03T14:52:02;5.78;;;2.63;;
51048;SDS011;37084;55.228;36.450;2023-05-03T14:55:04;5.18;;;3.55;;
51048;SDS011;37084;55.228;36.450;2023-05-03T14:58:06;5.97;;;3.47;;
51048;SDS011;37084;55.228;36.450;2023-05-03T15:01:15;5.63;;;3.03;;
51048;SDS011;37084;55.228;36.450;2023-05-03T15:04:17;3.60;;;2.25;;
51048;SDS011;37084;55.228;36.450;2023-05-03T15:07:19;5.20;;;3.20;;
51048;SDS011;37084;55.228;36.450;2023-05-03T15:10:20;4.55;;;3.25;;
51048;SDS011;37084;55.228;36.450;2023-05-03T15:13:22;4.28;;;3.38;;
51048;SDS011;37084;55.228;36.450;2023-05-03T15:16:23;4.35;;;3.03;;
51048;SDS011;37084;55.228;36.450;2023-05-03T15:19:25;4.78;;;3.40;;
51048;SDS011;37084;55.228;36.450;2023-05-03T15:22:27;5.80;;;4.20;;
51048;SDS011;37084;55.228;36.450;2023-05-03T15:25:29;6.13;;;4.28;;
51048;SDS011;37084;55.228;36.450;2023-05-03T15:28:30;7.32;;;4.70;;
51048;SDS011;37084;55.228;36.450;2023-05-03T15:31:31;6.32;;;4.43;;
51048;SDS011;37084;55.228;36.450;2023-05-03T15:34:34;7.40;;;5.20;;
51048;SDS011;37084;55.228;36.450;2023-05-03T15:37:37;6.40;;;4.57;;
51048;SDS011;37084;55.228;36.450;2023-05-03T15:40:38;8.40;;;5.70;;
51048;SDS011;37084;55.228;36.450;2023-05-03T15:43:40;7.35;;;4.60;;
51048;SDS011;37084;55.228;36.450;2023-05-03T15:46:42;9.00;;;5.43;;
51048;SDS011;37084;55.228;36.450;2023-05-03T15:49:45;8.73;;;5.10;;
51048;SDS011;37084;55.228;36.450;2023-05-03T15:52:46;9.00;;;6.03;;
51048;SDS011;37084;55.228;36.450;2023-05-03T15:55:48;5.82;;;4.75;;
51048;SDS011;37084;55.228;36.450;2023-05-03T15:58:49;7.72;;;5.07;;
51048;SDS011;37084;55.228;36.450;2023-05-03T16:01:50;29.60;;;14.95;;
51048;SDS011;37084;55.228;36.450;2023-05-03T16:04:51;12.27;;;7.25;;
51048;SDS011;37084;55.228;36.450;2023-05-03T16:07:53;20.33;;;9.60;;
51048;SDS011;37084;55.228;36.450;2023-05-03T16:10:54;9.07;;;5.40;;
51048;SDS011;37084;55.228;36.450;2023-05-03T16:13:55;6.93;;;5.20;;
51048;SDS011;37084;55.228;36.450;2023-05-03T16:16:56;6.75;;;4.57;;
51048;SDS011;37084;55.228;36.450;2023-05-03T16:20:02;8.82;;;5.80;;
51048;SDS011;37084;55.228;36.450;2023-05-03T16:23:10;5.35;;;3.83;;
51048;SDS011;37084;55.228;36.450;2023-05-03T16:26:12;9.15;;;5.07;;
51048;SDS011;37084;55.228;36.450;2023-05-03T16:29:17;5.10;;;3.85;;
51048;SDS011;37084;55.228;36.450;2023-05-03T16:32:18;8.23;;;7.15;;
51048;SDS011;37084;55.228;36.450;2023-05-03T16:35:19;5.43;;;3.85;;
51048;SDS011;37084;55.228;36.450;2023-05-03T16:38:21;5.22;;;4.50;;
51048;SDS011;37084;55.228;36.450;2023-05-03T16:41:22;5.15;;;3.75;;
51048;SDS011;37084;55.228;36.450;2023-05-03T16:44:24;5.10;;;3.33;;
51048;SDS011;37084;55.228;36.450;2023-05-03T16:47:25;5.60;;;3.75;;
51048;SDS011;37084;55.228;36.450;2023-05-03T16:50:27;6.25;;;4.18;;
51048;SDS011;37084;55.228;36.450;2023-05-03T16:53:28;3.88;;;2.90;;
51048;SDS011;37084;55.228;36.450;2023-05-03T16:56:30;3.75;;;2.65;;
51048;SDS011;37084;55.228;36.450;2023-05-03T16:59:32;4.25;;;2.85;;
51048;SDS011;37084;55.228;36.450;2023-05-03T17:02:35;5.90;;;3.80;;
51048;SDS011;37084;55.228;36.450;2023-05-03T17:05:39;3.67;;;2.20;;
51048;SDS011;37084;55.228;36.450;2023-05-03T17:08:40;4.72;;;2.63;;
51048;SDS011;37084;55.228;36.450;2023-05-03T17:11:41;3.72;;;2.15;;
51048;SDS011;37084;55.228;36.450;2023-05-03T17:14:43;4.18;;;2.25;;
51048;SDS011;37084;55.228;36.450;2023-05-03T17:17:44;4.72;;;3.15;;
51048;SDS011;37084;55.228;36.450;2023-05-03T17:20:45;4.50;;;2.47;;
51048;SDS011;37084;55.228;36.450;2023-05-03T17:23:46;6.40;;;3.15;;
51048;SDS011;37084;55.228;36.450;2023-05-03T17:26:48;3.72;;;2.95;;
51048;SDS011;37084;55.228;36.450;2023-05-03T17:29:49;4.35;;;2.58;;
51048;SDS011;37084;55.228;36.450;2023-05-03T17:32:50;4.63;;;2.60;;
51048;SDS011;37084;55.228;36.450;2023-05-03T17:35:52;4.35;;;3.58;;
51048;SDS011;37084;55.228;36.450;2023-05-03T17:38:55;4.72;;;3.35;;
51048;SDS011;37084;55.228;36.450;2023-05-03T17:41:57;4.88;;;3.00;;
51048;SDS011;37084;55.228;36.450;2023-05-03T17:44:59;5.32;;;3.75;;
51048;SDS011;37084;55.228;36.450;2023-05-03T17:48:01;5.72;;;3.78;;
51048;SDS011;37084;55.228;36.450;2023-05-03T17:51:04;3.92;;;2.78;;
51048;SDS011;37084;55.228;36.450;2023-05-03T17:54:08;5.13;;;2.97;;
51048;SDS011;37084;55.228;36.450;2023-05-03T17:57:09;5.35;;;3.70;;
51048;SDS011;37084;55.228;36.450;2023-05-03T18:00:10;5.43;;;3.60;;
51048;SDS011;37084;55.228;36.450;2023-05-03T18:03:15;4.45;;;3.38;;
51048;SDS011;37084;55.228;36.450;2023-05-03T18:06:16;5.53;;;3.50;;
51048;SDS011;37084;55.228;36.450;2023-05-03T18:09:18;4.70;;;3.40;;
51048;SDS011;37084;55.228;36.450;2023-05-03T18:12:19;5.13;;;3.35;;
51048;SDS011;37084;55.228;36.450;2023-05-03T18:15:20;3.70;;;2.80;;
51048;SDS011;37084;55.228;36.450;2023-05-03T18:18:22;5.38;;;3.38;;